Accueil
METAR-TAF:

METAR-TAF

Aéroports :

Aéroport international de Coni

Coni, Italie

latitude: 44-32-47N, longitude: 007-37-20E, altitude: 386 m

Observation

Le bulletin a été fait il y a 41 minutes, à 06:50 UTC
Vent 4 kt de sud
Température 2°C
Humidité 100%
Pression 1012 hPa
Visibilité 10 km ou plus
Nuages épars à une hauteur de 5000 ft

METAR: LIMZ 210650Z 19004KT 9999 SCT050 02/02 Q1012

Heure: 08:31 (07:31 UTC)

Prévision

Le bulletin a été fait il y a 2 heures et 31 minutes, à 05:00 UTC
Prévision valable du 21 à 06 UTC au 22 à 06 UTC
Vent 5 kt de direction variable
Visibilité: 7000 m
Nuages épars à une hauteur de 5000 ft
Temporairement
du 21 à 09 UTC au 21 à 16 UTC
pluie

TAF: LIMZ 210500Z 2106/2206 VRB05KT 7000 SCT050 TEMPO 2109/2116 RA

Observations et prévisions météorologiques de plus de 4000 aéroports (messages METAR et TAF).

Les stations disponibles sont représentées par des disques jaunes et rouges sur la carte.

Passer la souris dessus pour voir le nom de la station.

Cliquer dessus pour voir les observations et prévisions météorologiques.

Pour changer de carte: cliquez sur les boutons verts avec une croix noire pour zoomer, sur le bouton vert avec un tiret pour effectuer un zoom arrière, ou sur les flèches vertes pour les cartes adjacentes.


METAR-TAF: